KMOR/MOR METAR and TAF weather

Enter ICAO airport designator
Station Type Date Time Source
KMOR METAR 2020/11/28 20:35 UTC NOAA

KMOR 282035Z AUTO 00000KT 9SM CLR 15/03 A3010 RMK A01


Station Type Date Time Source
KMOR Decoded METAR 2020/11/28 20:35 UTC NOAA

Station name not available
Nov 28, 2020 - 03:35 PM EST / 2020.11.28 2035 UTC
Wind: Calm:0
Visibility: 9 mile(s):0
Sky conditions: clear
Temperature: 59 F (15 C)
Dew Point: 37 F (3 C)
Relative Humidity: 44%
Pressure (altimeter): 30.1 in. Hg (1019 hPa)
ob: KMOR 282035Z AUTO 00000KT 9SM CLR 15/03 A3010 RMK A01
cycle: 20

Station Type Date Time Source
KMOR TAF UTC NOAA

Error!

Example: see airport list